sensor_id;sensor_type;location;lat;lon;timestamp;P1;durP1;ratioP1;P2;durP2;ratioP2
4636;SDS011;2331;48.806;9.140;2024-02-14T00:02:20;9.18;;;4.53;;
4636;SDS011;2331;48.806;9.140;2024-02-14T00:04:47;11.77;;;4.07;;
4636;SDS011;2331;48.806;9.140;2024-02-14T00:07:14;9.20;;;4.13;;
4636;SDS011;2331;48.806;9.140;2024-02-14T00:09:40;10.82;;;5.80;;
4636;SDS011;2331;48.806;9.140;2024-02-14T00:12:07;11.70;;;5.20;;
4636;SDS011;2331;48.806;9.140;2024-02-14T00:14:37;12.95;;;5.82;;
4636;SDS011;2331;48.806;9.140;2024-02-14T00:17:04;11.77;;;5.35;;
4636;SDS011;2331;48.806;9.140;2024-02-14T00:19:32;7.75;;;3.88;;
4636;SDS011;2331;48.806;9.140;2024-02-14T00:21:58;4.72;;;2.92;;
4636;SDS011;2331;48.806;9.140;2024-02-14T00:24:26;5.05;;;2.20;;
4636;SDS011;2331;48.806;9.140;2024-02-14T00:26:53;6.30;;;3.33;;
4636;SDS011;2331;48.806;9.140;2024-02-14T00:29:21;4.70;;;3.30;;
4636;SDS011;2331;48.806;9.140;2024-02-14T00:31:50;6.55;;;3.42;;
4636;SDS011;2331;48.806;9.140;2024-02-14T00:34:17;5.93;;;3.10;;
4636;SDS011;2331;48.806;9.140;2024-02-14T00:36:43;5.10;;;2.50;;
4636;SDS011;2331;48.806;9.140;2024-02-14T00:39:11;4.88;;;2.97;;
4636;SDS011;2331;48.806;9.140;2024-02-14T00:41:38;4.90;;;2.75;;
4636;SDS011;2331;48.806;9.140;2024-02-14T00:44:05;6.50;;;2.80;;
4636;SDS011;2331;48.806;9.140;2024-02-14T00:46:31;5.65;;;3.20;;
4636;SDS011;2331;48.806;9.140;2024-02-14T00:48:59;4.95;;;2.85;;
4636;SDS011;2331;48.806;9.140;2024-02-14T00:51:26;5.20;;;3.35;;
4636;SDS011;2331;48.806;9.140;2024-02-14T00:53:53;6.15;;;3.40;;
4636;SDS011;2331;48.806;9.140;2024-02-14T00:56:19;5.55;;;2.90;;
4636;SDS011;2331;48.806;9.140;2024-02-14T00:58:48;8.25;;;3.40;;
4636;SDS011;2331;48.806;9.140;2024-02-14T01:01:15;6.13;;;3.67;;
4636;SDS011;2331;48.806;9.140;2024-02-14T01:03:42;8.02;;;2.72;;
4636;SDS011;2331;48.806;9.140;2024-02-14T01:06:10;4.38;;;2.45;;
4636;SDS011;2331;48.806;9.140;2024-02-14T01:08:37;7.18;;;3.00;;
4636;SDS011;2331;48.806;9.140;2024-02-14T01:11:03;4.43;;;2.78;;
4636;SDS011;2331;48.806;9.140;2024-02-14T01:13:30;6.82;;;2.72;;
4636;SDS011;2331;48.806;9.140;2024-02-14T01:15:57;4.55;;;2.70;;
4636;SDS011;2331;48.806;9.140;2024-02-14T01:18:23;5.50;;;2.72;;
4636;SDS011;2331;48.806;9.140;2024-02-14T01:20:50;6.32;;;2.42;;
4636;SDS011;2331;48.806;9.140;2024-02-14T01:23:18;9.35;;;2.53;;
4636;SDS011;2331;48.806;9.140;2024-02-14T01:25:45;8.13;;;2.40;;
4636;SDS011;2331;48.806;9.140;2024-02-14T01:28:12;3.20;;;1.80;;
4636;SDS011;2331;48.806;9.140;2024-02-14T01:30:39;3.85;;;2.13;;
4636;SDS011;2331;48.806;9.140;2024-02-14T01:33:06;6.18;;;2.40;;
4636;SDS011;2331;48.806;9.140;2024-02-14T01:35:32;4.75;;;2.25;;
4636;SDS011;2331;48.806;9.140;2024-02-14T01:37:59;5.05;;;2.60;;
4636;SDS011;2331;48.806;9.140;2024-02-14T01:40:29;8.43;;;2.30;;
4636;SDS011;2331;48.806;9.140;2024-02-14T01:42:55;4.28;;;2.10;;
4636;SDS011;2331;48.806;9.140;2024-02-14T01:45:22;6.50;;;3.13;;
4636;SDS011;2331;48.806;9.140;2024-02-14T01:47:49;4.15;;;2.55;;
4636;SDS011;2331;48.806;9.140;2024-02-14T01:50:16;3.08;;;2.08;;
4636;SDS011;2331;48.806;9.140;2024-02-14T01:52:50;4.22;;;2.70;;
4636;SDS011;2331;48.806;9.140;2024-02-14T01:55:17;6.68;;;2.90;;
4636;SDS011;2331;48.806;9.140;2024-02-14T01:57:46;4.85;;;2.40;;
4636;SDS011;2331;48.806;9.140;2024-02-14T02:00:13;3.92;;;2.08;;
4636;SDS011;2331;48.806;9.140;2024-02-14T02:02:43;5.38;;;2.30;;
4636;SDS011;2331;48.806;9.140;2024-02-14T02:05:11;3.35;;;2.30;;
4636;SDS011;2331;48.806;9.140;2024-02-14T02:07:37;7.50;;;2.53;;
4636;SDS011;2331;48.806;9.140;2024-02-14T02:10:08;4.93;;;2.70;;
4636;SDS011;2331;48.806;9.140;2024-02-14T02:12:35;6.93;;;2.80;;
4636;SDS011;2331;48.806;9.140;2024-02-14T02:15:05;5.70;;;3.05;;
4636;SDS011;2331;48.806;9.140;2024-02-14T02:17:36;5.32;;;2.90;;
4636;SDS011;2331;48.806;9.140;2024-02-14T02:20:03;4.85;;;2.65;;
4636;SDS011;2331;48.806;9.140;2024-02-14T02:22:32;6.32;;;2.55;;
4636;SDS011;2331;48.806;9.140;2024-02-14T02:25:01;5.18;;;2.45;;
4636;SDS011;2331;48.806;9.140;2024-02-14T02:27:31;3.63;;;2.40;;
4636;SDS011;2331;48.806;9.140;2024-02-14T02:29:59;5.35;;;2.67;;
4636;SDS011;2331;48.806;9.140;2024-02-14T02:32:26;5.55;;;3.03;;
4636;SDS011;2331;48.806;9.140;2024-02-14T02:34:53;5.05;;;2.70;;
4636;SDS011;2331;48.806;9.140;2024-02-14T02:37:20;5.22;;;2.72;;
4636;SDS011;2331;48.806;9.140;2024-02-14T02:39:47;5.28;;;2.60;;
4636;SDS011;2331;48.806;9.140;2024-02-14T02:42:15;5.07;;;2.50;;
4636;SDS011;2331;48.806;9.140;2024-02-14T02:44:45;5.60;;;2.70;;
4636;SDS011;2331;48.806;9.140;2024-02-14T02:47:12;6.28;;;2.63;;
4636;SDS011;2331;48.806;9.140;2024-02-14T02:49:41;4.68;;;2.72;;
4636;SDS011;2331;48.806;9.140;2024-02-14T02:52:09;6.65;;;2.33;;
4636;SDS011;2331;48.806;9.140;2024-02-14T02:54:36;6.88;;;2.55;;
4636;SDS011;2331;48.806;9.140;2024-02-14T02:57:05;4.40;;;2.33;;
4636;SDS011;2331;48.806;9.140;2024-02-14T02:59:33;4.13;;;2.15;;
4636;SDS011;2331;48.806;9.140;2024-02-14T03:02:00;5.10;;;2.60;;
4636;SDS011;2331;48.806;9.140;2024-02-14T03:04:27;5.10;;;2.42;;
4636;SDS011;2331;48.806;9.140;2024-02-14T03:06:54;6.90;;;2.10;;
4636;SDS011;2331;48.806;9.140;2024-02-14T03:09:21;5.53;;;2.55;;
4636;SDS011;2331;48.806;9.140;2024-02-14T03:11:47;8.43;;;2.38;;
4636;SDS011;2331;48.806;9.140;2024-02-14T03:14:15;3.63;;;2.30;;
4636;SDS011;2331;48.806;9.140;2024-02-14T03:16:43;7.00;;;2.47;;
4636;SDS011;2331;48.806;9.140;2024-02-14T03:19:09;6.00;;;3.20;;
4636;SDS011;2331;48.806;9.140;2024-02-14T03:21:36;3.50;;;2.10;;
4636;SDS011;2331;48.806;9.140;2024-02-14T03:24:03;4.75;;;2.50;;
4636;SDS011;2331;48.806;9.140;2024-02-14T03:26:30;4.80;;;2.30;;
4636;SDS011;2331;48.806;9.140;2024-02-14T03:28:58;6.28;;;2.25;;
4636;SDS011;2331;48.806;9.140;2024-02-14T03:31:25;8.57;;;2.72;;
4636;SDS011;2331;48.806;9.140;2024-02-14T03:33:53;6.88;;;2.58;;
4636;SDS011;2331;48.806;9.140;2024-02-14T03:36:20;4.35;;;2.10;;
4636;SDS011;2331;48.806;9.140;2024-02-14T03:38:49;7.00;;;2.22;;
4636;SDS011;2331;48.806;9.140;2024-02-14T03:41:15;4.15;;;1.88;;
4636;SDS011;2331;48.806;9.140;2024-02-14T03:43:42;6.20;;;2.88;;
4636;SDS011;2331;48.806;9.140;2024-02-14T03:46:09;4.68;;;2.80;;
4636;SDS011;2331;48.806;9.140;2024-02-14T03:48:37;4.22;;;2.22;;
4636;SDS011;2331;48.806;9.140;2024-02-14T03:51:07;5.47;;;2.58;;
4636;SDS011;2331;48.806;9.140;2024-02-14T03:53:33;6.03;;;2.75;;
4636;SDS011;2331;48.806;9.140;2024-02-14T03:56:00;6.32;;;2.40;;
4636;SDS011;2331;48.806;9.140;2024-02-14T03:58:27;3.65;;;2.10;;
4636;SDS011;2331;48.806;9.140;2024-02-14T04:00:54;7.45;;;2.75;;
4636;SDS011;2331;48.806;9.140;2024-02-14T04:03:21;3.53;;;1.90;;
4636;SDS011;2331;48.806;9.140;2024-02-14T04:05:47;4.25;;;2.40;;
4636;SDS011;2331;48.806;9.140;2024-02-14T04:08:15;6.18;;;2.15;;
4636;SDS011;2331;48.806;9.140;2024-02-14T04:10:42;5.95;;;2.22;;
4636;SDS011;2331;48.806;9.140;2024-02-14T04:13:09;4.07;;;1.80;;
4636;SDS011;2331;48.806;9.140;2024-02-14T04:15:36;5.00;;;2.20;;
4636;SDS011;2331;48.806;9.140;2024-02-14T04:18:03;3.65;;;1.73;;
4636;SDS011;2331;48.806;9.140;2024-02-14T04:20:31;3.78;;;2.00;;
4636;SDS011;2331;48.806;9.140;2024-02-14T04:22:57;6.50;;;2.28;;
4636;SDS011;2331;48.806;9.140;2024-02-14T04:25:26;6.18;;;2.30;;
4636;SDS011;2331;48.806;9.140;2024-02-14T04:27:52;8.23;;;2.42;;
4636;SDS011;2331;48.806;9.140;2024-02-14T04:30:19;5.20;;;2.25;;
4636;SDS011;2331;48.806;9.140;2024-02-14T04:32:46;5.40;;;2.20;;
4636;SDS011;2331;48.806;9.140;2024-02-14T04:35:14;3.20;;;2.20;;
4636;SDS011;2331;48.806;9.140;2024-02-14T04:37:40;5.10;;;1.95;;
4636;SDS011;2331;48.806;9.140;2024-02-14T04:40:11;6.45;;;2.50;;
4636;SDS011;2331;48.806;9.140;2024-02-14T04:42:39;5.15;;;2.35;;
4636;SDS011;2331;48.806;9.140;2024-02-14T04:45:06;3.15;;;2.22;;
4636;SDS011;2331;48.806;9.140;2024-02-14T04:47:33;7.82;;;2.75;;
4636;SDS011;2331;48.806;9.140;2024-02-14T04:50:00;4.65;;;2.10;;
4636;SDS011;2331;48.806;9.140;2024-02-14T04:52:29;5.68;;;2.60;;
4636;SDS011;2331;48.806;9.140;2024-02-14T04:54:56;4.00;;;2.13;;
4636;SDS011;2331;48.806;9.140;2024-02-14T04:57:22;4.80;;;2.03;;
4636;SDS011;2331;48.806;9.140;2024-02-14T04:59:51;3.92;;;2.17;;
4636;SDS011;2331;48.806;9.140;2024-02-14T05:02:18;4.05;;;2.40;;
4636;SDS011;2331;48.806;9.140;2024-02-14T05:04:45;7.88;;;3.03;;
4636;SDS011;2331;48.806;9.140;2024-02-14T05:07:11;4.13;;;2.28;;
4636;SDS011;2331;48.806;9.140;2024-02-14T05:09:38;4.63;;;2.38;;
4636;SDS011;2331;48.806;9.140;2024-02-14T05:12:05;4.00;;;2.03;;
4636;SDS011;2331;48.806;9.140;2024-02-14T05:14:37;5.35;;;2.00;;
4636;SDS011;2331;48.806;9.140;2024-02-14T05:17:06;6.25;;;2.53;;
4636;SDS011;2331;48.806;9.140;2024-02-14T05:19:33;5.20;;;2.15;;
4636;SDS011;2331;48.806;9.140;2024-02-14T05:22:00;3.70;;;2.08;;
4636;SDS011;2331;48.806;9.140;2024-02-14T05:24:27;4.40;;;2.28;;
4636;SDS011;2331;48.806;9.140;2024-02-14T05:26:54;3.13;;;2.22;;
4636;SDS011;2331;48.806;9.140;2024-02-14T05:29:21;3.97;;;1.80;;
4636;SDS011;2331;48.806;9.140;2024-02-14T05:31:47;3.40;;;2.28;;
4636;SDS011;2331;48.806;9.140;2024-02-14T05:34:16;4.75;;;2.30;;
4636;SDS011;2331;48.806;9.140;2024-02-14T05:36:42;5.05;;;2.00;;
4636;SDS011;2331;48.806;9.140;2024-02-14T05:39:10;6.15;;;2.30;;
4636;SDS011;2331;48.806;9.140;2024-02-14T05:41:37;6.85;;;2.00;;
4636;SDS011;2331;48.806;9.140;2024-02-14T05:44:04;4.07;;;2.03;;
4636;SDS011;2331;48.806;9.140;2024-02-14T05:46:31;6.20;;;2.33;;
4636;SDS011;2331;48.806;9.140;2024-02-14T05:48:57;5.18;;;2.05;;
4636;SDS011;2331;48.806;9.140;2024-02-14T05:51:25;4.55;;;2.17;;
4636;SDS011;2331;48.806;9.140;2024-02-14T05:53:52;6.80;;;2.40;;
4636;SDS011;2331;48.806;9.140;2024-02-14T05:56:19;5.15;;;2.33;;
4636;SDS011;2331;48.806;9.140;2024-02-14T05:58:45;3.55;;;2.00;;
4636;SDS011;2331;48.806;9.140;2024-02-14T06:01:12;4.32;;;2.30;;
4636;SDS011;2331;48.806;9.140;2024-02-14T06:03:40;4.10;;;2.22;;
4636;SDS011;2331;48.806;9.140;2024-02-14T06:06:07;5.45;;;2.25;;
4636;SDS011;2331;48.806;9.140;2024-02-14T06:08:35;5.45;;;2.40;;
4636;SDS011;2331;48.806;9.140;2024-02-14T06:11:03;5.07;;;2.35;;
4636;SDS011;2331;48.806;9.140;2024-02-14T06:13:29;4.90;;;2.65;;
4636;SDS011;2331;48.806;9.140;2024-02-14T06:15:56;6.32;;;2.90;;
4636;SDS011;2331;48.806;9.140;2024-02-14T06:18:23;5.95;;;3.00;;
4636;SDS011;2331;48.806;9.140;2024-02-14T06:20:50;9.23;;;4.15;;
4636;SDS011;2331;48.806;9.140;2024-02-14T06:23:16;8.15;;;3.60;;
4636;SDS011;2331;48.806;9.140;2024-02-14T06:25:44;5.75;;;3.40;;
4636;SDS011;2331;48.806;9.140;2024-02-14T06:28:11;7.18;;;3.55;;
4636;SDS011;2331;48.806;9.140;2024-02-14T06:30:37;8.60;;;3.40;;
4636;SDS011;2331;48.806;9.140;2024-02-14T06:33:04;9.18;;;3.58;;
4636;SDS011;2331;48.806;9.140;2024-02-14T06:35:31;14.50;;;4.80;;
4636;SDS011;2331;48.806;9.140;2024-02-14T06:37:57;9.88;;;3.70;;
4636;SDS011;2331;48.806;9.140;2024-02-14T06:40:25;6.90;;;3.78;;
4636;SDS011;2331;48.806;9.140;2024-02-14T06:42:54;7.47;;;3.50;;
4636;SDS011;2331;48.806;9.140;2024-02-14T06:45:20;8.30;;;3.83;;
4636;SDS011;2331;48.806;9.140;2024-02-14T06:47:47;6.55;;;3.40;;
4636;SDS011;2331;48.806;9.140;2024-02-14T06:50:14;8.25;;;3.00;;
4636;SDS011;2331;48.806;9.140;2024-02-14T06:52:40;5.95;;;2.90;;
4636;SDS011;2331;48.806;9.140;2024-02-14T06:55:07;6.45;;;2.60;;
4636;SDS011;2331;48.806;9.140;2024-02-14T06:57:34;3.67;;;2.05;;
4636;SDS011;2331;48.806;9.140;2024-02-14T07:00:02;9.10;;;3.15;;
4636;SDS011;2331;48.806;9.140;2024-02-14T07:02:32;5.78;;;2.50;;
4636;SDS011;2331;48.806;9.140;2024-02-14T07:04:58;5.47;;;2.50;;
4636;SDS011;2331;48.806;9.140;2024-02-14T07:07:25;4.70;;;2.78;;
4636;SDS011;2331;48.806;9.140;2024-02-14T07:09:52;5.55;;;2.28;;
4636;SDS011;2331;48.806;9.140;2024-02-14T07:12:19;4.22;;;2.00;;
4636;SDS011;2331;48.806;9.140;2024-02-14T07:14:46;3.60;;;1.95;;
4636;SDS011;2331;48.806;9.140;2024-02-14T07:17:14;3.17;;;1.85;;
4636;SDS011;2331;48.806;9.140;2024-02-14T07:19:41;2.78;;;1.80;;
4636;SDS011;2331;48.806;9.140;2024-02-14T07:22:12;6.20;;;2.67;;
4636;SDS011;2331;48.806;9.140;2024-02-14T07:24:40;9.20;;;3.67;;
4636;SDS011;2331;48.806;9.140;2024-02-14T07:27:07;11.18;;;4.15;;
4636;SDS011;2331;48.806;9.140;2024-02-14T07:29:34;8.13;;;3.75;;
4636;SDS011;2331;48.806;9.140;2024-02-14T07:32:01;6.85;;;3.40;;
4636;SDS011;2331;48.806;9.140;2024-02-14T07:34:30;7.00;;;3.40;;
4636;SDS011;2331;48.806;9.140;2024-02-14T07:36:56;7.10;;;3.50;;
4636;SDS011;2331;48.806;9.140;2024-02-14T07:39:23;5.00;;;3.15;;
4636;SDS011;2331;48.806;9.140;2024-02-14T07:41:50;8.60;;;3.35;;
4636;SDS011;2331;48.806;9.140;2024-02-14T07:44:16;8.98;;;3.65;;
4636;SDS011;2331;48.806;9.140;2024-02-14T07:46:43;6.18;;;3.00;;
4636;SDS011;2331;48.806;9.140;2024-02-14T07:49:10;4.97;;;3.00;;
4636;SDS011;2331;48.806;9.140;2024-02-14T07:51:38;4.80;;;2.63;;
4636;SDS011;2331;48.806;9.140;2024-02-14T07:54:05;4.78;;;2.10;;
4636;SDS011;2331;48.806;9.140;2024-02-14T07:56:32;5.35;;;1.90;;
4636;SDS011;2331;48.806;9.140;2024-02-14T07:58:58;6.03;;;1.65;;
4636;SDS011;2331;48.806;9.140;2024-02-14T08:01:25;1.83;;;1.30;;
4636;SDS011;2331;48.806;9.140;2024-02-14T08:03:52;5.72;;;1.60;;
4636;SDS011;2331;48.806;9.140;2024-02-14T08:06:19;6.53;;;1.67;;
4636;SDS011;2331;48.806;9.140;2024-02-14T08:08:47;4.47;;;1.83;;
4636;SDS011;2331;48.806;9.140;2024-02-14T08:11:17;5.07;;;1.70;;
4636;SDS011;2331;48.806;9.140;2024-02-14T08:13:44;3.10;;;1.40;;
4636;SDS011;2331;48.806;9.140;2024-02-14T08:16:10;3.63;;;1.63;;
4636;SDS011;2331;48.806;9.140;2024-02-14T08:18:37;2.55;;;1.52;;
4636;SDS011;2331;48.806;9.140;2024-02-14T08:21:04;5.15;;;1.45;;
4636;SDS011;2331;48.806;9.140;2024-02-14T08:23:31;3.75;;;1.90;;
4636;SDS011;2331;48.806;9.140;2024-02-14T08:26:00;2.50;;;1.33;;
4636;SDS011;2331;48.806;9.140;2024-02-14T08:28:27;2.60;;;1.45;;
4636;SDS011;2331;48.806;9.140;2024-02-14T08:30:54;4.10;;;1.92;;
4636;SDS011;2331;48.806;9.140;2024-02-14T08:33:21;3.33;;;1.85;;
4636;SDS011;2331;48.806;9.140;2024-02-14T08:35:48;4.82;;;1.60;;
4636;SDS011;2331;48.806;9.140;2024-02-14T08:38:14;4.10;;;1.98;;
4636;SDS011;2331;48.806;9.140;2024-02-14T08:40:41;3.53;;;1.70;;
4636;SDS011;2331;48.806;9.140;2024-02-14T08:43:09;4.82;;;1.92;;
4636;SDS011;2331;48.806;9.140;2024-02-14T08:45:36;5.60;;;1.60;;
4636;SDS011;2331;48.806;9.140;2024-02-14T08:48:04;3.00;;;1.60;;
4636;SDS011;2331;48.806;9.140;2024-02-14T08:50:31;3.60;;;1.90;;
4636;SDS011;2331;48.806;9.140;2024-02-14T08:52:58;3.80;;;1.83;;
4636;SDS011;2331;48.806;9.140;2024-02-14T08:55:24;4.80;;;1.95;;
4636;SDS011;2331;48.806;9.140;2024-02-14T08:57:51;5.55;;;2.00;;
4636;SDS011;2331;48.806;9.140;2024-02-14T09:00:19;3.65;;;1.52;;
4636;SDS011;2331;48.806;9.140;2024-02-14T09:02:47;4.53;;;1.83;;
4636;SDS011;2331;48.806;9.140;2024-02-14T09:05:13;4.57;;;1.80;;
4636;SDS011;2331;48.806;9.140;2024-02-14T09:07:41;6.53;;;2.15;;
4636;SDS011;2331;48.806;9.140;2024-02-14T09:10:09;2.95;;;1.70;;
4636;SDS011;2331;48.806;9.140;2024-02-14T09:12:37;5.72;;;1.90;;
4636;SDS011;2331;48.806;9.140;2024-02-14T09:15:06;3.17;;;1.80;;
4636;SDS011;2331;48.806;9.140;2024-02-14T09:17:35;4.43;;;1.58;;
4636;SDS011;2331;48.806;9.140;2024-02-14T09:20:02;2.15;;;1.17;;
4636;SDS011;2331;48.806;9.140;2024-02-14T09:22:29;6.70;;;1.85;;
4636;SDS011;2331;48.806;9.140;2024-02-14T09:24:55;3.33;;;1.45;;
4636;SDS011;2331;48.806;9.140;2024-02-14T09:27:22;2.95;;;1.55;;
4636;SDS011;2331;48.806;9.140;2024-02-14T09:29:49;4.40;;;1.77;;
4636;SDS011;2331;48.806;9.140;2024-02-14T09:32:16;5.22;;;1.27;;
4636;SDS011;2331;48.806;9.140;2024-02-14T09:34:44;4.90;;;1.50;;
4636;SDS011;2331;48.806;9.140;2024-02-14T09:37:11;2.67;;;1.20;;
4636;SDS011;2331;48.806;9.140;2024-02-14T09:39:38;5.38;;;2.05;;
4636;SDS011;2331;48.806;9.140;2024-02-14T09:42:06;3.38;;;1.48;;
4636;SDS011;2331;48.806;9.140;2024-02-14T09:44:35;4.18;;;1.60;;
4636;SDS011;2331;48.806;9.140;2024-02-14T09:47:04;4.03;;;1.30;;
4636;SDS011;2331;48.806;9.140;2024-02-14T09:49:32;3.47;;;1.50;;
4636;SDS011;2331;48.806;9.140;2024-02-14T09:52:02;2.22;;;1.20;;
4636;SDS011;2331;48.806;9.140;2024-02-14T09:54:30;2.10;;;1.40;;
4636;SDS011;2331;48.806;9.140;2024-02-14T09:56:59;5.28;;;1.63;;
4636;SDS011;2331;48.806;9.140;2024-02-14T09:59:27;2.25;;;1.48;;
4636;SDS011;2331;48.806;9.140;2024-02-14T10:01:55;1.95;;;1.00;;
4636;SDS011;2331;48.806;9.140;2024-02-14T10:04:22;3.42;;;1.55;;
4636;SDS011;2331;48.806;9.140;2024-02-14T10:06:50;2.22;;;1.30;;
4636;SDS011;2331;48.806;9.140;2024-02-14T10:09:19;2.20;;;1.10;;
4636;SDS011;2331;48.806;9.140;2024-02-14T10:11:46;5.07;;;2.10;;
4636;SDS011;2331;48.806;9.140;2024-02-14T10:14:13;9.02;;;1.38;;
4636;SDS011;2331;48.806;9.140;2024-02-14T10:16:40;2.53;;;1.27;;
4636;SDS011;2331;48.806;9.140;2024-02-14T10:19:13;3.60;;;1.25;;
4636;SDS011;2331;48.806;9.140;2024-02-14T10:21:41;3.50;;;1.58;;
4636;SDS011;2331;48.806;9.140;2024-02-14T10:24:07;3.30;;;1.30;;
4636;SDS011;2331;48.806;9.140;2024-02-14T10:26:37;1.90;;;1.35;;
4636;SDS011;2331;48.806;9.140;2024-02-14T10:29:05;6.30;;;2.35;;
4636;SDS011;2331;48.806;9.140;2024-02-14T10:31:33;3.30;;;1.30;;
4636;SDS011;2331;48.806;9.140;2024-02-14T10:34:00;5.13;;;1.60;;
4636;SDS011;2331;48.806;9.140;2024-02-14T10:36:31;2.58;;;1.40;;
4636;SDS011;2331;48.806;9.140;2024-02-14T10:38:59;1.92;;;1.15;;
4636;SDS011;2331;48.806;9.140;2024-02-14T10:41:28;4.07;;;1.27;;
4636;SDS011;2331;48.806;9.140;2024-02-14T10:44:01;1.98;;;1.25;;
4636;SDS011;2331;48.806;9.140;2024-02-14T10:46:31;3.92;;;1.25;;
4636;SDS011;2331;48.806;9.140;2024-02-14T10:49:02;2.25;;;1.10;;
4636;SDS011;2331;48.806;9.140;2024-02-14T10:51:30;2.58;;;1.33;;
4636;SDS011;2331;48.806;9.140;2024-02-14T10:53:58;3.80;;;1.27;;
4636;SDS011;2331;48.806;9.140;2024-02-14T10:56:27;2.65;;;1.40;;
4636;SDS011;2331;48.806;9.140;2024-02-14T10:58:55;4.05;;;1.40;;
4636;SDS011;2331;48.806;9.140;2024-02-14T11:01:25;3.15;;;1.42;;
4636;SDS011;2331;48.806;9.140;2024-02-14T11:03:55;1.65;;;0.98;;
4636;SDS011;2331;48.806;9.140;2024-02-14T11:06:23;2.05;;;1.05;;
4636;SDS011;2331;48.806;9.140;2024-02-14T11:08:57;1.25;;;1.00;;
4636;SDS011;2331;48.806;9.140;2024-02-14T11:11:28;3.53;;;1.40;;
4636;SDS011;2331;48.806;9.140;2024-02-14T11:13:55;2.42;;;1.40;;
4636;SDS011;2331;48.806;9.140;2024-02-14T11:16:23;4.13;;;1.27;;
4636;SDS011;2331;48.806;9.140;2024-02-14T11:18:54;1.60;;;1.08;;
4636;SDS011;2331;48.806;9.140;2024-02-14T11:21:31;1.88;;;0.90;;
4636;SDS011;2331;48.806;9.140;2024-02-14T11:24:04;1.65;;;0.90;;
4636;SDS011;2331;48.806;9.140;2024-02-14T11:26:37;2.50;;;1.23;;
4636;SDS011;2331;48.806;9.140;2024-02-14T11:29:13;3.50;;;1.13;;
4636;SDS011;2331;48.806;9.140;2024-02-14T11:31:42;1.13;;;0.88;;
4636;SDS011;2331;48.806;9.140;2024-02-14T11:34:11;3.05;;;1.10;;
4636;SDS011;2331;48.806;9.140;2024-02-14T11:36:39;1.65;;;0.85;;
4636;SDS011;2331;48.806;9.140;2024-02-14T11:39:08;1.33;;;0.90;;
4636;SDS011;2331;48.806;9.140;2024-02-14T11:41:34;1.65;;;0.93;;
4636;SDS011;2331;48.806;9.140;2024-02-14T11:44:03;1.77;;;1.00;;
4636;SDS011;2331;48.806;9.140;2024-02-14T11:46:30;1.83;;;1.00;;
4636;SDS011;2331;48.806;9.140;2024-02-14T11:48:59;1.23;;;1.00;;
4636;SDS011;2331;48.806;9.140;2024-02-14T11:51:27;1.00;;;0.77;;
4636;SDS011;2331;48.806;9.140;2024-02-14T11:53:55;1.42;;;0.90;;
4636;SDS011;2331;48.806;9.140;2024-02-14T11:56:22;1.00;;;0.90;;
4636;SDS011;2331;48.806;9.140;2024-02-14T11:58:51;4.18;;;1.10;;
4636;SDS011;2331;48.806;9.140;2024-02-14T12:01:18;1.60;;;1.00;;
4636;SDS011;2331;48.806;9.140;2024-02-14T12:03:45;1.90;;;1.05;;
4636;SDS011;2331;48.806;9.140;2024-02-14T12:06:13;1.40;;;0.90;;
4636;SDS011;2331;48.806;9.140;2024-02-14T12:08:41;1.65;;;1.00;;
4636;SDS011;2331;48.806;9.140;2024-02-14T12:11:08;1.65;;;0.93;;
4636;SDS011;2331;48.806;9.140;2024-02-14T12:13:35;1.40;;;0.77;;
4636;SDS011;2331;48.806;9.140;2024-02-14T12:16:03;3.17;;;0.80;;
4636;SDS011;2331;48.806;9.140;2024-02-14T12:18:32;1.23;;;0.80;;
4636;SDS011;2331;48.806;9.140;2024-02-14T12:21:08;2.50;;;1.00;;
4636;SDS011;2331;48.806;9.140;2024-02-14T12:23:36;1.50;;;0.90;;
4636;SDS011;2331;48.806;9.140;2024-02-14T12:26:03;0.95;;;0.75;;
4636;SDS011;2331;48.806;9.140;2024-02-14T12:28:30;2.97;;;0.80;;
4636;SDS011;2331;48.806;9.140;2024-02-14T12:30:58;1.90;;;0.90;;
4636;SDS011;2331;48.806;9.140;2024-02-14T12:33:25;2.03;;;0.88;;
4636;SDS011;2331;48.806;9.140;2024-02-14T12:35:53;5.68;;;1.00;;
4636;SDS011;2331;48.806;9.140;2024-02-14T12:38:21;4.50;;;0.70;;
4636;SDS011;2331;48.806;9.140;2024-02-14T12:40:50;1.83;;;0.68;;
4636;SDS011;2331;48.806;9.140;2024-02-14T12:43:19;1.35;;;0.73;;
4636;SDS011;2331;48.806;9.140;2024-02-14T12:45:45;1.60;;;0.75;;
4636;SDS011;2331;48.806;9.140;2024-02-14T12:48:12;3.47;;;1.45;;
4636;SDS011;2331;48.806;9.140;2024-02-14T12:50:40;1.10;;;0.70;;
4636;SDS011;2331;48.806;9.140;2024-02-14T12:53:12;0.70;;;0.40;;
4636;SDS011;2331;48.806;9.140;2024-02-14T12:55:39;1.38;;;0.70;;
4636;SDS011;2331;48.806;9.140;2024-02-14T12:58:07;3.53;;;0.63;;
4636;SDS011;2331;48.806;9.140;2024-02-14T13:00:34;1.00;;;0.65;;
4636;SDS011;2331;48.806;9.140;2024-02-14T13:03:03;1.70;;;0.85;;
4636;SDS011;2331;48.806;9.140;2024-02-14T13:05:30;1.02;;;0.60;;
4636;SDS011;2331;48.806;9.140;2024-02-14T13:07:57;1.10;;;0.68;;
4636;SDS011;2331;48.806;9.140;2024-02-14T13:10:23;1.20;;;0.50;;
4636;SDS011;2331;48.806;9.140;2024-02-14T13:12:50;1.20;;;0.60;;
4636;SDS011;2331;48.806;9.140;2024-02-14T13:15:18;1.13;;;0.68;;
4636;SDS011;2331;48.806;9.140;2024-02-14T13:17:45;0.80;;;0.60;;
4636;SDS011;2331;48.806;9.140;2024-02-14T13:20:12;0.90;;;0.60;;
4636;SDS011;2331;48.806;9.140;2024-02-14T13:22:40;0.90;;;0.60;;
4636;SDS011;2331;48.806;9.140;2024-02-14T13:25:07;1.20;;;0.60;;
4636;SDS011;2331;48.806;9.140;2024-02-14T13:27:34;1.20;;;0.65;;
4636;SDS011;2331;48.806;9.140;2024-02-14T13:30:00;1.30;;;0.82;;
4636;SDS011;2331;48.806;9.140;2024-02-14T13:32:28;1.08;;;0.50;;
4636;SDS011;2331;48.806;9.140;2024-02-14T13:34:55;1.50;;;0.70;;
4636;SDS011;2331;48.806;9.140;2024-02-14T13:37:22;1.08;;;0.60;;
4636;SDS011;2331;48.806;9.140;2024-02-14T13:39:49;1.65;;;0.70;;
4636;SDS011;2331;48.806;9.140;2024-02-14T13:42:18;0.90;;;0.68;;
4636;SDS011;2331;48.806;9.140;2024-02-14T13:44:44;1.30;;;0.60;;
4636;SDS011;2331;48.806;9.140;2024-02-14T13:47:11;1.38;;;0.60;;
4636;SDS011;2331;48.806;9.140;2024-02-14T13:49:39;1.15;;;0.70;;
4636;SDS011;2331;48.806;9.140;2024-02-14T13:52:06;0.90;;;0.60;;
4636;SDS011;2331;48.806;9.140;2024-02-14T13:54:33;1.63;;;1.10;;
4636;SDS011;2331;48.806;9.140;2024-02-14T13:56:59;1.00;;;0.60;;
4636;SDS011;2331;48.806;9.140;2024-02-14T13:59:26;2.55;;;0.80;;
4636;SDS011;2331;48.806;9.140;2024-02-14T14:01:53;0.85;;;0.60;;
4636;SDS011;2331;48.806;9.140;2024-02-14T14:04:19;1.42;;;0.60;;
4636;SDS011;2331;48.806;9.140;2024-02-14T14:06:48;1.23;;;0.50;;
4636;SDS011;2331;48.806;9.140;2024-02-14T14:09:15;2.10;;;0.52;;
4636;SDS011;2331;48.806;9.140;2024-02-14T14:11:42;0.80;;;0.57;;
4636;SDS011;2331;48.806;9.140;2024-02-14T14:14:09;1.42;;;0.80;;
4636;SDS011;2331;48.806;9.140;2024-02-14T14:16:40;1.45;;;0.63;;
4636;SDS011;2331;48.806;9.140;2024-02-14T14:19:08;0.80;;;0.50;;
4636;SDS011;2331;48.806;9.140;2024-02-14T14:21:36;1.08;;;0.60;;
4636;SDS011;2331;48.806;9.140;2024-02-14T14:24:04;1.10;;;0.90;;
4636;SDS011;2331;48.806;9.140;2024-02-14T14:26:31;1.05;;;0.70;;
4636;SDS011;2331;48.806;9.140;2024-02-14T14:28:58;1.40;;;0.70;;
4636;SDS011;2331;48.806;9.140;2024-02-14T14:31:24;0.70;;;0.50;;
4636;SDS011;2331;48.806;9.140;2024-02-14T14:33:51;0.80;;;0.60;;
4636;SDS011;2331;48.806;9.140;2024-02-14T14:36:18;2.30;;;0.65;;
4636;SDS011;2331;48.806;9.140;2024-02-14T14:38:45;1.42;;;0.70;;
4636;SDS011;2331;48.806;9.140;2024-02-14T14:41:13;2.85;;;0.60;;
4636;SDS011;2331;48.806;9.140;2024-02-14T14:43:40;1.02;;;0.70;;
4636;SDS011;2331;48.806;9.140;2024-02-14T14:46:07;0.80;;;0.73;;
4636;SDS011;2331;48.806;9.140;2024-02-14T14:48:33;1.08;;;0.68;;
4636;SDS011;2331;48.806;9.140;2024-02-14T14:51:00;2.53;;;0.70;;
4636;SDS011;2331;48.806;9.140;2024-02-14T14:53:27;1.25;;;0.77;;
4636;SDS011;2331;48.806;9.140;2024-02-14T14:55:55;0.70;;;0.40;;
4636;SDS011;2331;48.806;9.140;2024-02-14T14:58:25;1.23;;;0.80;;
4636;SDS011;2331;48.806;9.140;2024-02-14T15:00:52;0.95;;;0.70;;
4636;SDS011;2331;48.806;9.140;2024-02-14T15:03:20;0.95;;;0.60;;
4636;SDS011;2331;48.806;9.140;2024-02-14T15:05:47;2.88;;;0.65;;
4636;SDS011;2331;48.806;9.140;2024-02-14T15:08:14;5.15;;;0.65;;
4636;SDS011;2331;48.806;9.140;2024-02-14T15:10:42;2.55;;;1.17;;
4636;SDS011;2331;48.806;9.140;2024-02-14T15:13:09;1.00;;;0.70;;
4636;SDS011;2331;48.806;9.140;2024-02-14T15:15:39;2.55;;;0.75;;
4636;SDS011;2331;48.806;9.140;2024-02-14T15:18:06;1.00;;;0.70;;